Time;durP1;ratioP1;P1;durP2;ratioP2;P2;SDS_P1;SDS_P2;PMS_P1;PMS_P2;Temp;Humidity;BMP_temperature;BMP_pressure;BME280_temperature;BME280_humidity;BME280_pressure;Samples;Min_cycle;Max_cycle;Signal;HPM_P1;HPM_P2
2024/03/05 00:30:13;;;;;;;0.80;0.80;;;;;;;6.68;98.13;98112.34;6142353;23;20040;-90
2024/03/05 00:43:26;;;;;;;0.70;0.70;;;;;;;6.45;100.00;98118.59;6137356;23;20024;-90
2024/03/05 02:31:21;;;;;;;0.70;0.70;;;;;;;6.85;98.00;98123.56;6239618;23;20129;-92
2024/03/05 02:33:48;;;;;;;0.70;0.70;;;;;;;6.81;98.47;98124.28;6233327;23;20050;-91
2024/03/05 02:36:15;;;;;;;0.70;0.70;;;;;;;6.82;98.16;98120.78;6259662;23;20003;-93
2024/03/05 02:38:40;;;;;;;0.75;0.75;;;;;;;6.74;98.77;98122.25;6203664;23;20020;-95
2024/03/05 02:41:06;;;;;;;0.70;0.70;;;;;;;6.66;99.24;98126.41;6197167;23;20008;-95
2024/03/05 02:43:33;;;;;;;0.65;0.65;;;;;;;6.68;99.43;98122.97;6171097;23;20012;-93
2024/03/05 02:45:59;;;;;;;0.80;0.80;;;;;;;6.80;98.82;98124.22;6196132;23;20104;-96
2024/03/05 02:48:25;;;;;;;0.70;0.70;;;;;;;6.71;98.63;98127.47;6222293;23;20019;-96
2024/03/05 02:50:51;;;;;;;0.80;0.80;;;;;;;6.77;98.68;98129.44;6198581;23;20009;-95
2024/03/05 02:53:21;;;;;;;0.70;0.70;;;;;;;6.78;98.80;98126.81;6201636;23;20000;-92
2024/03/05 03:09:17;;;;;;;0.70;0.70;;;;;;;6.55;100.00;98131.31;6131065;23;20147;-94
2024/03/05 03:11:47;;;;;;;0.70;0.70;;;;;;;6.72;99.76;98137.22;6205626;23;20032;-91
2024/03/05 03:14:13;;;;;;;0.70;0.70;;;;;;;6.71;99.57;98134.50;6204560;23;20096;-93
2024/03/05 03:16:43;;;;;;;0.70;0.70;;;;;;;6.72;99.08;98142.53;6203804;23;20009;-93
2024/03/05 03:19:12;;;;;;;0.70;0.70;;;;;;;6.71;99.05;98138.09;6200246;23;20016;-95
2024/03/05 03:21:39;;;;;;;0.77;0.77;;;;;;;6.71;99.17;98135.44;6227752;23;20282;-92
2024/03/05 03:24:05;;;;;;;0.80;0.80;;;;;;;6.60;99.34;98142.09;6175445;23;20067;-93
2024/03/05 03:26:34;;;;;;;0.70;0.70;;;;;;;6.49;99.85;98132.88;6203983;23;19996;-92
2024/03/05 03:29:00;;;;;;;0.80;0.80;;;;;;;6.56;100.00;98143.72;6183026;23;20017;-92
2024/03/05 03:31:26;;;;;;;0.70;0.70;;;;;;;6.53;99.83;98142.75;6181779;23;20008;-93
2024/03/05 03:33:52;;;;;;;0.80;0.80;;;;;;;6.45;100.00;98138.91;6180920;23;20016;-91
2024/03/05 03:36:27;;;;;;;;;;;;;;;6.45;100.00;98146.84;6227478;23;20008;-95
2024/03/05 03:38:52;;;;;;;0.80;0.80;;;;;;;6.36;100.00;98139.47;6225747;23;19991;-95
2024/03/05 03:49:14;;;;;;;0.80;0.80;;;;;;;6.24;100.00;98142.59;6161437;23;20025;-93
2024/03/05 03:51:39;;;;;;;0.80;0.80;;;;;;;6.22;100.00;98141.63;6162565;23;20005;-94
2024/03/05 03:54:05;;;;;;;0.80;0.80;;;;;;;6.23;100.00;98145.16;6134736;23;20864;-93
2024/03/05 03:56:31;;;;;;;0.80;0.80;;;;;;;6.20;100.00;98143.31;6137650;23;20073;-94
2024/03/05 03:58:56;;;;;;;0.80;0.80;;;;;;;6.22;100.00;98151.31;6139182;23;20010;-91
2024/03/05 04:01:29;;;;;;;0.70;0.70;;;;;;;6.22;100.00;98151.31;6168537;23;20040;-95
2024/03/05 04:03:58;;;;;;;;;;;;;;;6.24;100.00;98154.94;6172655;23;20012;-91
2024/03/05 04:06:24;;;;;;;0.80;0.80;;;;;;;6.23;100.00;98154.03;6173040;23;19920;-92
2024/03/05 04:08:51;;;;;;;0.80;0.80;;;;;;;6.21;100.00;98155.72;6149188;23;19996;-90
2024/03/05 04:11:19;;;;;;;0.70;0.70;;;;;;;6.23;100.00;98150.47;6173120;23;20025;-91
2024/03/05 04:13:48;;;;;;;0.75;0.75;;;;;;;6.25;100.00;98152.34;6152334;23;20014;-90
2024/03/05 06:51:52;;;;;;;0.88;0.88;;;;;;;6.70;97.59;98221.09;6159909;23;19958;31
2024/03/05 07:56:25;;;;;;;0.70;0.70;;;;;;;7.07;96.80;98252.47;6162282;23;20324;-93
2024/03/05 07:58:51;;;;;;;0.80;0.80;;;;;;;7.08;96.46;98259.56;6138930;23;20022;-92
2024/03/05 08:01:16;;;;;;;0.75;0.75;;;;;;;7.08;96.15;98266.63;6147177;23;20009;-90
2024/03/05 08:03:42;;;;;;;0.80;0.80;;;;;;;7.07;96.39;98254.22;6148642;23;20006;-91
2024/03/05 08:06:15;;;;;;;0.70;0.70;;;;;;;7.09;96.24;98268.41;6148582;23;20001;-92
2024/03/05 08:08:41;;;;;;;0.70;0.70;;;;;;;7.10;96.61;98267.59;6148510;23;20016;-91
2024/03/05 08:11:09;;;;;;;0.73;0.73;;;;;;;7.14;96.73;98269.53;6124787;23;20062;-91
2024/03/05 08:13:45;;;;;;;0.80;0.80;;;;;;;7.13;96.54;98263.28;6125624;23;20017;-90
2024/03/05 08:16:14;;;;;;;0.70;0.70;;;;;;;7.15;96.62;98269.56;6126348;23;20010;-90
2024/03/05 08:18:39;;;;;;;0.70;0.70;;;;;;;7.10;97.10;98271.16;6124055;23;20014;-90
2024/03/05 08:21:06;;;;;;;0.70;0.70;;;;;;;7.07;97.44;98271.03;6150042;23;20022;-90
2024/03/05 08:23:32;;;;;;;0.77;0.77;;;;;;;7.09;97.49;98269.34;6150923;23;20041;-90
2024/03/05 08:25:59;;;;;;;0.70;0.70;;;;;;;7.03;97.33;98274.41;6151340;23;19994;-92
2024/03/05 11:53:37;;;;;;;0.70;0.70;;;;;;;7.35;88.47;98330.38;6140395;23;20111;-89
2024/03/05 11:56:13;;;;;;;0.80;0.80;;;;;;;7.31;89.14;98329.34;6122121;23;20072;-93
2024/03/05 12:04:31;;;;;;;0.90;0.90;;;;;;;7.46;87.50;98329.00;6139953;23;20038;-88
2024/03/05 12:12:28;;;;;;;0.70;0.70;;;;;;;7.83;83.84;98319.63;6141672;23;20033;-91
2024/03/05 12:25:49;;;;;;;0.80;0.80;;;;;;;8.13;83.77;98325.94;6156600;23;20032;-90
2024/03/05 12:28:18;;;;;;;0.70;0.70;;;;;;;8.29;80.83;98310.47;6150839;23;20016;-91
2024/03/05 12:30:45;;;;;;;0.80;0.80;;;;;;;8.16;81.71;98317.16;6158313;23;20021;-91
2024/03/05 12:33:26;;;;;;;0.73;0.73;;;;;;;8.08;81.72;98318.66;6193208;23;20109;-91
2024/03/05 12:35:55;;;;;;;0.80;0.80;;;;;;;8.19;81.28;98318.19;6184158;23;20013;-92
2024/03/05 12:38:23;;;;;;;0.80;0.80;;;;;;;8.40;81.08;98310.00;6155098;23;20024;-90
2024/03/05 13:18:41;;;;;;;0.70;0.70;;;;;;;7.96;78.80;98314.78;6101018;23;20283;-89
2024/03/05 13:26:33;;;;;;;0.80;0.80;;;;;;;8.15;78.40;98313.63;6164934;23;19997;-91
2024/03/05 13:31:45;;;;;;;0.70;0.70;;;;;;;8.18;79.61;98323.41;6158653;23;20004;-91
2024/03/05 13:34:25;;;;;;;0.82;0.82;;;;;;;8.46;77.81;98325.22;6227871;22;20060;-89
2024/03/05 13:37:13;;;;;;;0.82;0.82;;;;;;;9.07;75.05;98315.50;6238032;23;20039;-91
2024/03/05 13:40:21;;;;;;;0.80;0.80;;;;;;;10.05;71.04;98304.75;6238303;23;20039;-90
2024/03/05 13:42:53;;;;;;;0.90;0.90;;;;;;;12.42;63.28;98299.69;6212975;23;20024;-93
2024/03/05 13:45:27;;;;;;;0.70;0.70;;;;;;;12.49;64.64;98296.22;6209602;23;20004;-92
2024/03/05 13:47:54;;;;;;;0.70;0.70;;;;;;;11.69;62.67;98298.44;6207267;23;20008;-93
2024/03/05 13:50:20;;;;;;;0.67;0.67;;;;;;;10.87;66.15;98303.09;6200432;23;20068;-94
2024/03/05 13:52:49;;;;;;;0.60;0.60;;;;;;;10.69;67.02;98300.94;6197810;23;20010;-90
2024/03/05 13:55:15;;;;;;;0.70;0.70;;;;;;;10.32;67.11;98305.44;6196426;23;20017;-91
2024/03/05 13:57:45;;;;;;;0.70;0.70;;;;;;;10.49;66.69;98306.75;6174569;23;20020;-92
2024/03/05 14:00:19;;;;;;;0.70;0.70;;;;;;;10.31;68.34;98303.66;6196383;23;20035;-91
2024/03/05 14:02:46;;;;;;;0.60;0.60;;;;;;;10.06;68.47;98299.47;6196197;23;20017;-91
2024/03/05 14:05:12;;;;;;;0.60;0.60;;;;;;;9.64;70.62;98299.31;6221367;23;20314;-92
2024/03/05 14:07:39;;;;;;;0.60;0.60;;;;;;;9.52;70.13;98311.41;6195643;23;20016;-93
2024/03/05 14:10:15;;;;;;;0.70;0.70;;;;;;;9.15;73.23;98316.59;6192310;23;20365;-93
2024/03/05 14:12:41;;;;;;;0.70;0.70;;;;;;;9.04;74.25;98320.72;6194616;23;20124;-92
2024/03/05 14:15:17;;;;;;;0.70;0.70;;;;;;;9.06;73.02;98316.38;6223245;23;20413;-93
2024/03/05 14:17:43;;;;;;;0.70;0.70;;;;;;;9.42;71.00;98319.13;6221730;23;20143;-91
2024/03/05 14:20:10;;;;;;;0.70;0.70;;;;;;;9.47;71.49;98312.16;6226692;23;20013;-90
2024/03/05 14:22:36;;;;;;;0.70;0.70;;;;;;;9.70;70.28;98311.00;6149803;23;20021;-92
2024/03/05 14:25:02;;;;;;;0.70;0.70;;;;;;;9.77;69.57;98318.31;6199074;23;20023;-88
2024/03/05 14:27:28;;;;;;;0.70;0.70;;;;;;;9.83;69.93;98309.56;6203713;23;20017;-89
2024/03/05 14:29:54;;;;;;;0.60;0.60;;;;;;;9.46;72.05;98315.69;6203111;23;20092;-87
2024/03/05 14:32:21;;;;;;;0.70;0.70;;;;;;;9.29;71.47;98317.88;6184472;23;20012;-90
2024/03/05 14:34:46;;;;;;;0.60;0.60;;;;;;;8.96;73.72;98326.75;6186557;23;19996;-88
2024/03/05 14:37:12;;;;;;;0.70;0.70;;;;;;;8.69;74.29;98328.59;6210445;23;20023;-89
2024/03/05 14:39:41;;;;;;;0.70;0.70;;;;;;;8.80;73.45;98321.81;6182590;23;20015;-88
2024/03/05 14:42:06;;;;;;;0.60;0.60;;;;;;;8.70;71.13;98328.63;6212126;23;20031;-88
2024/03/05 14:44:36;;;;;;;0.70;0.70;;;;;;;8.77;70.89;98323.47;6211445;23;19997;-88
2024/03/05 14:47:01;;;;;;;0.70;0.70;;;;;;;9.08;69.21;98327.94;6236460;23;20028;-93
2024/03/05 14:49:27;;;;;;;0.60;0.60;;;;;;;9.29;69.07;98328.53;6169166;23;20012;-92
2024/03/05 14:51:54;;;;;;;0.70;0.70;;;;;;;9.12;70.99;98328.09;6190314;23;20035;-93
2024/03/05 14:54:21;;;;;;;0.70;0.70;;;;;;;9.23;69.44;98320.38;6188276;23;20043;-91
2024/03/05 14:56:47;;;;;;;0.70;0.70;;;;;;;9.02;69.99;98327.78;6189961;23;20345;-92
2024/03/05 14:59:13;;;;;;;0.70;0.70;;;;;;;8.86;70.35;98324.69;6216137;23;20001;-91
2024/03/05 15:01:39;;;;;;;0.70;0.70;;;;;;;8.78;70.27;98334.19;6191482;23;20013;-92
2024/03/05 15:04:05;;;;;;;0.80;0.80;;;;;;;8.64;70.72;98331.13;6165767;23;20032;-92
2024/03/05 15:06:31;;;;;;;0.77;0.77;;;;;;;8.61;71.64;98338.09;6190549;23;20234;-90
2024/03/05 15:08:57;;;;;;;0.70;0.70;;;;;;;8.55;71.99;98340.56;6189997;23;20297;-94
2024/03/05 15:11:22;;;;;;;0.70;0.70;;;;;;;8.50;71.98;98342.19;6167518;23;20023;-92
2024/03/05 15:13:49;;;;;;;0.60;0.60;;;;;;;8.47;72.45;98345.63;6189408;23;20027;-91
2024/03/05 15:16:15;;;;;;;0.70;0.70;;;;;;;8.50;71.83;98344.84;6193493;23;20320;-91
2024/03/05 15:18:42;;;;;;;0.80;0.80;;;;;;;8.57;71.02;98341.50;6192340;23;20008;-93
2024/03/05 15:21:13;;;;;;;0.80;0.80;;;;;;;8.58;70.88;98338.00;6168486;23;20009;-90
2024/03/05 15:23:41;;;;;;;0.70;0.70;;;;;;;8.44;71.36;98337.59;6164434;23;20119;-92
2024/03/05 15:26:06;;;;;;;0.80;0.80;;;;;;;8.57;71.25;98339.75;6192017;23;20088;-92
2024/03/05 15:28:36;;;;;;;0.80;0.80;;;;;;;8.62;71.07;98338.13;6214237;23;20055;-94
2024/03/05 15:31:09;;;;;;;0.70;0.70;;;;;;;8.57;70.94;98339.75;6190905;23;20012;-92
2024/03/05 15:33:38;;;;;;;0.70;0.70;;;;;;;8.47;71.85;98343.88;6163649;23;20024;-93
2024/03/05 15:36:05;;;;;;;0.70;0.70;;;;;;;8.42;71.73;98358.78;6215945;23;20910;-88
2024/03/05 15:38:32;;;;;;;0.70;0.70;;;;;;;8.37;72.29;98352.41;6199603;23;19992;-88
2024/03/05 15:41:00;;;;;;;0.60;0.60;;;;;;;8.44;72.34;98346.47;6235586;23;20036;-88
2024/03/05 15:43:26;;;;;;;0.70;0.70;;;;;;;8.36;72.91;98355.94;6206817;23;20036;-88
2024/03/05 15:45:55;;;;;;;0.60;0.60;;;;;;;8.32;73.00;98353.09;6210470;23;20016;-87
2024/03/05 15:48:21;;;;;;;0.70;0.70;;;;;;;8.23;72.35;98351.03;6207801;23;20024;-88
2024/03/05 15:50:47;;;;;;;0.75;0.75;;;;;;;8.15;72.48;98348.16;6209772;23;20086;-88
2024/03/05 15:53:15;;;;;;;0.70;0.70;;;;;;;8.02;72.46;98353.03;6210455;23;20004;-86
2024/03/05 15:55:45;;;;;;;0.70;0.70;;;;;;;7.98;71.86;98355.56;6185748;23;20043;-86
2024/03/05 16:00:06;;;;;;;0.77;0.77;;;;;;;7.95;73.03;98363.44;6192160;23;20005;-86
2024/03/05 16:01:06;;;;;;;0.70;0.70;;;;;;;7.85;74.12;98368.38;6236782;23;20081;-88
2024/03/05 16:03:41;;;;;;;0.70;0.70;;;;;;;7.98;74.25;98363.53;6184722;23;20004;-88
2024/03/05 16:06:19;;;;;;;0.70;0.70;;;;;;;7.93;73.48;98356.28;6213445;23;20004;-87
2024/03/05 16:08:47;;;;;;;0.60;0.60;;;;;;;7.75;74.09;98360.94;6208919;23;20021;-90
2024/03/05 16:11:18;;;;;;;0.70;0.70;;;;;;;7.73;75.20;98366.22;6235506;23;20035;-87
2024/03/05 16:13:47;;;;;;;0.70;0.70;;;;;;;7.70;74.57;98372.31;6207011;23;20020;-89
2024/03/05 16:16:13;;;;;;;0.70;0.70;;;;;;;7.66;74.71;98375.72;6201893;23;20071;-92
2024/03/05 16:18:59;;;;;;;0.70;0.70;;;;;;;7.68;75.15;98374.03;6228016;23;20008;-91
2024/03/05 16:21:24;;;;;;;0.77;0.77;;;;;;;7.70;75.60;98374.06;6208733;23;20016;-88
2024/03/05 16:23:50;;;;;;;0.70;0.70;;;;;;;7.59;75.89;98375.47;6207888;23;19997;-88
2024/03/05 16:26:15;;;;;;;0.70;0.70;;;;;;;7.66;75.89;98377.47;6182340;23;20230;-87
2024/03/05 16:28:42;;;;;;;0.70;0.70;;;;;;;7.55;76.92;98366.47;6233613;23;20051;-87
2024/03/05 16:31:09;;;;;;;0.70;0.70;;;;;;;7.50;76.46;98375.13;6186641;23;20004;-89
2024/03/05 16:33:36;;;;;;;0.73;0.73;;;;;;;7.58;76.99;98382.53;6236971;23;20036;-89
2024/03/05 16:36:02;;;;;;;0.80;0.80;;;;;;;7.55;76.90;98382.41;6236013;23;20000;-88
2024/03/05 16:38:28;;;;;;;0.80;0.80;;;;;;;7.43;77.25;98377.59;6209172;23;19996;-90
2024/03/05 16:40:54;;;;;;;0.70;0.70;;;;;;;7.39;76.80;98380.06;6162928;23;20031;-88
2024/03/05 16:43:20;;;;;;;0.70;0.70;;;;;;;7.23;78.30;98383.91;6211092;23;20020;-87
2024/03/05 16:45:48;;;;;;;0.70;0.70;;;;;;;7.19;78.40;98382.91;6212453;23;20032;-89
2024/03/05 16:48:19;;;;;;;0.70;0.70;;;;;;;7.29;77.99;98378.84;6211915;23;20016;-87
2024/03/05 16:50:45;;;;;;;0.70;0.70;;;;;;;7.28;78.26;98384.06;6173023;23;20017;-92
2024/03/05 16:53:11;;;;;;;0.70;0.70;;;;;;;7.33;78.83;98382.47;6195056;23;20028;-90
2024/03/05 16:55:37;;;;;;;0.70;0.70;;;;;;;7.20;79.43;98383.81;6222892;23;20016;-89
2024/03/05 16:58:05;;;;;;;0.80;0.80;;;;;;;7.23;79.37;98385.66;6146118;23;20008;-88
2024/03/05 17:00:37;;;;;;;0.70;0.70;;;;;;;7.15;79.78;98393.34;6195173;23;20036;-94
2024/03/05 17:03:11;;;;;;;0.70;0.70;;;;;;;7.13;79.79;98384.41;6222104;23;20016;-92
2024/03/05 17:05:40;;;;;;;0.70;0.70;;;;;;;7.08;79.98;98391.28;6192312;23;20008;-89
2024/03/05 17:08:10;;;;;;;0.70;0.70;;;;;;;7.04;80.04;98392.97;6193733;23;20012;-92
2024/03/05 17:10:38;;;;;;;0.63;0.63;;;;;;;7.04;80.36;98387.66;6171385;23;20012;-88
2024/03/05 17:13:04;;;;;;;0.70;0.70;;;;;;;6.98;80.83;98397.09;6204103;23;20008;-95
2024/03/05 17:15:44;;;;;;;0.70;0.70;;;;;;;6.97;80.17;98395.31;6148537;23;20067;-90
2024/03/05 17:18:11;;;;;;;0.70;0.70;;;;;;;6.89;81.49;98402.97;6178345;23;20047;-93
2024/03/05 17:20:37;;;;;;;0.70;0.70;;;;;;;6.83;83.31;98400.09;6202271;23;20064;-91
2024/03/05 17:23:03;;;;;;;0.70;0.70;;;;;;;6.67;84.81;98403.91;6179730;23;20016;-89
2024/03/05 17:25:38;;;;;;;0.70;0.70;;;;;;;6.56;85.46;98399.91;6206968;23;19997;-90
2024/03/05 17:28:06;;;;;;;0.70;0.70;;;;;;;6.46;85.80;98409.22;6209992;23;20000;-87
2024/03/05 17:30:32;;;;;;;0.70;0.70;;;;;;;6.41;86.58;98406.41;6238562;23;20019;-91
2024/03/05 17:32:58;;;;;;;0.80;0.80;;;;;;;6.40;87.11;98404.59;6213517;23;20040;-88
2024/03/05 17:35:23;;;;;;;0.80;0.80;;;;;;;6.31;88.39;98414.81;6188567;23;20032;-88
2024/03/05 17:37:49;;;;;;;0.75;0.75;;;;;;;6.33;88.47;98417.56;6187528;23;20011;-89
2024/03/05 17:40:15;;;;;;;0.70;0.70;;;;;;;6.30;89.25;98412.13;6185877;23;19992;-90
2024/03/05 17:42:42;;;;;;;0.80;0.80;;;;;;;6.27;88.84;98414.63;6207304;23;20016;-92
2024/03/05 17:45:10;;;;;;;0.70;0.70;;;;;;;6.23;89.13;98412.69;6230238;23;20222;-93
2024/03/05 17:47:36;;;;;;;0.80;0.80;;;;;;;6.20;89.42;98420.53;6232980;23;20012;-91
2024/03/05 17:50:08;;;;;;;0.80;0.80;;;;;;;6.27;89.33;98420.84;6201329;23;20043;-87
2024/03/05 17:52:34;;;;;;;0.80;0.80;;;;;;;6.28;89.44;98417.38;6201338;23;20136;-91
2024/03/05 17:55:07;;;;;;;0.80;0.80;;;;;;;6.20;89.77;98429.38;6169754;23;20095;-92
2024/03/05 17:57:40;;;;;;;0.70;0.70;;;;;;;6.17;90.26;98430.16;6193496;23;20017;-91
2024/03/05 18:00:22;;;;;;;0.70;0.70;;;;;;;6.12;90.17;98429.06;6220624;23;20012;-92
2024/03/05 18:02:49;;;;;;;0.80;0.80;;;;;;;6.09;90.37;98428.06;6220677;23;20413;-92
2024/03/05 18:05:19;;;;;;;0.80;0.80;;;;;;;5.99;90.69;98428.47;6219773;23;20012;-91
2024/03/05 18:07:46;;;;;;;0.70;0.70;;;;;;;6.04;91.15;98429.59;6221639;23;20020;-92
2024/03/05 18:10:12;;;;;;;0.70;0.70;;;;;;;6.09;91.02;98422.75;6193314;23;20044;-89
2024/03/05 18:12:43;;;;;;;0.80;0.80;;;;;;;5.87;91.02;98437.69;6167683;23;20194;-91
2024/03/05 18:15:13;;;;;;;0.70;0.70;;;;;;;5.79;91.30;98428.50;6191332;23;20012;-90
2024/03/05 18:17:41;;;;;;;0.70;0.70;;;;;;;5.67;91.74;98430.66;6192561;23;20016;-91
2024/03/05 18:20:14;;;;;;;0.70;0.70;;;;;;;5.58;91.98;98439.06;6165403;23;20028;-91
2024/03/05 18:22:42;;;;;;;0.70;0.70;;;;;;;5.62;91.84;98440.13;6189619;23;20344;-91
2024/03/05 18:25:16;;;;;;;0.80;0.80;;;;;;;5.55;92.30;98443.31;6191246;23;20001;-91
2024/03/05 18:27:56;;;;;;;0.80;0.80;;;;;;;5.53;93.31;98447.66;6219061;23;20075;-91
2024/03/05 18:30:32;;;;;;;0.80;0.80;;;;;;;5.57;92.88;98445.22;6193746;23;20019;-88
2024/03/05 18:33:07;;;;;;;0.80;0.80;;;;;;;5.53;92.82;98452.94;6219844;23;20004;-91
2024/03/05 18:35:35;;;;;;;0.82;0.82;;;;;;;5.38;92.99;98450.53;6169369;23;20012;-92
2024/03/05 18:38:03;;;;;;;0.80;0.80;;;;;;;5.40;93.29;98459.44;6220116;23;20004;-89
2024/03/05 18:40:34;;;;;;;0.80;0.80;;;;;;;5.34;93.68;98452.13;6219781;23;20135;-91
2024/03/05 18:43:11;;;;;;;0.80;0.80;;;;;;;5.16;94.15;98451.28;6220167;23;20016;-91
2024/03/05 18:45:39;;;;;;;;;;;;;;;5.17;94.35;98453.09;6219601;23;20012;-90
2024/03/05 18:48:16;;;;;;;0.80;0.80;;;;;;;5.23;94.45;98453.41;6194149;23;19954;-91
2024/03/05 18:50:49;;;;;;;0.80;0.80;;;;;;;5.17;94.48;98462.75;6167904;23;20009;-91
2024/03/05 18:53:15;;;;;;;0.75;0.75;;;;;;;5.20;93.38;98454.97;6220960;23;20035;-90
2024/03/05 18:55:45;;;;;;;0.85;0.85;;;;;;;5.18;93.26;98456.66;6219538;23;20016;-92
2024/03/05 18:58:11;;;;;;;0.90;0.90;;;;;;;5.18;93.34;98462.84;6190087;23;20012;-91
2024/03/05 19:00:41;;;;;;;0.90;0.90;;;;;;;5.22;93.64;98456.88;6191493;23;20611;-92
2024/03/05 19:03:24;;;;;;;0.80;0.80;;;;;;;5.08;93.71;98460.63;6193470;23;20095;-90
2024/03/05 19:05:50;;;;;;;0.80;0.80;;;;;;;5.23;93.43;98463.97;6194087;23;20048;-90
2024/03/05 19:08:21;;;;;;;0.85;0.85;;;;;;;5.29;93.09;98463.34;6195357;23;20012;-92
2024/03/05 19:10:48;;;;;;;0.80;0.80;;;;;;;5.28;93.17;98465.09;6169862;23;20004;-91
2024/03/05 19:13:15;;;;;;;0.90;0.90;;;;;;;5.31;92.72;98459.00;6169690;23;20009;-89
2024/03/05 19:15:43;;;;;;;0.80;0.80;;;;;;;5.40;92.68;98462.97;6175241;23;20006;-90
2024/03/05 19:18:09;;;;;;;0.80;0.80;;;;;;;5.42;92.29;98459.50;6201093;23;20001;-91
2024/03/05 19:20:35;;;;;;;0.80;0.80;;;;;;;5.44;92.26;98458.72;6204716;23;20035;-91
2024/03/05 19:23:01;;;;;;;0.80;0.80;;;;;;;5.45;91.96;98456.97;6199053;23;20179;-91
2024/03/05 19:25:29;;;;;;;0.80;0.80;;;;;;;5.47;91.86;98465.91;6185022;23;20013;-88
2024/03/05 19:27:55;;;;;;;0.80;0.80;;;;;;;5.42;92.50;98462.16;6212544;23;20286;-89
2024/03/05 19:30:21;;;;;;;0.70;0.70;;;;;;;5.38;92.03;98462.00;6162798;23;20370;-90
2024/03/05 19:32:47;;;;;;;0.80;0.80;;;;;;;5.26;91.85;98463.19;6213600;23;20012;-89
2024/03/05 19:35:16;;;;;;;0.80;0.80;;;;;;;5.19;91.93;98477.88;6212837;23;20015;-91
2024/03/05 19:37:43;;;;;;;0.70;0.70;;;;;;;5.27;92.16;98483.50;6212258;23;20056;-89
2024/03/05 19:40:19;;;;;;;0.80;0.80;;;;;;;5.26;92.26;98484.34;6213299;23;20008;-89
2024/03/05 19:42:57;;;;;;;0.80;0.80;;;;;;;5.30;92.15;98476.63;6213952;23;20000;-88
2024/03/05 19:45:25;;;;;;;0.80;0.80;;;;;;;5.33;91.70;98475.88;6239133;23;20013;-93
2024/03/05 19:47:51;;;;;;;0.80;0.80;;;;;;;5.24;91.84;98478.09;6161535;23;20028;-93
2024/03/05 19:50:22;;;;;;;0.70;0.70;;;;;;;5.15;92.49;98478.56;6180426;23;20004;-94
2024/03/05 19:52:50;;;;;;;0.80;0.80;;;;;;;5.17;92.57;98483.91;6200605;23;20009;-91
2024/03/05 19:55:20;;;;;;;0.80;0.80;;;;;;;5.09;92.83;98491.53;6237494;23;20024;-89
2024/03/05 19:57:57;;;;;;;0.80;0.80;;;;;;;5.05;92.90;98489.56;6178515;23;20013;-90
2024/03/05 20:00:25;;;;;;;0.80;0.80;;;;;;;4.97;93.20;98491.84;6204635;23;20039;-90
2024/03/05 20:02:54;;;;;;;0.90;0.90;;;;;;;5.04;93.32;98487.75;6205386;23;20021;-91
2024/03/05 20:05:22;;;;;;;0.88;0.88;;;;;;;4.93;93.57;98476.66;6230696;23;20016;-90
2024/03/05 20:07:51;;;;;;;0.80;0.80;;;;;;;4.75;93.88;98486.38;6230083;23;20001;-92
2024/03/05 20:10:20;;;;;;;0.80;0.80;;;;;;;4.56;94.06;98487.22;6228889;23;20012;-92
2024/03/05 20:12:46;;;;;;;0.80;0.80;;;;;;;4.38;95.12;98485.50;6175111;23;20051;-92
2024/03/05 20:15:13;;;;;;;0.80;0.80;;;;;;;4.25;96.10;98488.34;6172509;23;20013;-92
2024/03/05 20:17:39;;;;;;;0.80;0.80;;;;;;;4.10;96.77;98484.94;6171667;23;20040;-91
2024/03/05 20:20:08;;;;;;;0.70;0.70;;;;;;;4.11;97.10;98489.41;6172633;23;20171;-91
2024/03/05 20:22:37;;;;;;;0.80;0.80;;;;;;;4.13;97.14;98479.84;6201415;23;20095;-90
2024/03/05 20:25:09;;;;;;;0.80;0.80;;;;;;;4.07;97.60;98484.78;6202969;23;20457;-91
2024/03/05 20:27:39;;;;;;;0.80;0.80;;;;;;;4.07;97.72;98485.72;6173349;23;20020;-93
2024/03/05 20:30:13;;;;;;;0.85;0.85;;;;;;;4.03;98.23;98483.75;6202918;23;20020;-91
2024/03/05 20:32:44;;;;;;;0.80;0.80;;;;;;;4.09;98.43;98480.50;6206579;23;20427;-93
2024/03/05 20:35:15;;;;;;;0.90;0.90;;;;;;;3.98;98.63;98481.72;6179784;23;20013;-92
2024/03/05 20:37:42;;;;;;;0.80;0.80;;;;;;;4.01;98.71;98487.13;6177098;23;20158;-92
2024/03/05 20:40:12;;;;;;;0.90;0.90;;;;;;;3.94;98.21;98485.91;6205173;23;19985;-90
2024/03/05 20:42:42;;;;;;;0.90;0.90;;;;;;;3.90;98.20;98494.50;6211281;23;20051;-91
2024/03/05 20:45:10;;;;;;;0.90;0.90;;;;;;;3.69;98.62;98494.31;6200991;23;20008;-91
2024/03/05 20:47:39;;;;;;;0.90;0.90;;;;;;;3.56;99.69;98502.41;6205777;23;20000;-90
2024/03/05 20:50:07;;;;;;;0.82;0.82;;;;;;;3.54;99.24;98502.31;6202979;23;20028;-90
2024/03/05 20:52:35;;;;;;;0.80;0.80;;;;;;;3.51;99.27;98501.25;6206180;23;20001;-90
2024/03/05 20:55:05;;;;;;;0.80;0.80;;;;;;;3.40;99.95;98502.41;6236433;23;20016;-91
2024/03/05 20:58:06;;;;;;;0.90;0.90;;;;;;;3.61;99.82;98495.63;6187052;23;20012;-89
2024/03/05 21:00:42;;;;;;;0.90;0.90;;;;;;;3.37;100.00;98503.16;6187888;23;20017;-91
2024/03/05 21:03:17;;;;;;;0.90;0.90;;;;;;;3.36;100.00;98500.44;6183980;23;20020;-89
2024/03/05 21:05:46;;;;;;;0.95;0.95;;;;;;;3.31;100.00;98503.75;6183557;23;20048;-90
2024/03/05 21:08:13;;;;;;;0.85;0.85;;;;;;;3.40;100.00;98512.94;6207724;23;20040;-88
2024/03/05 21:10:41;;;;;;;0.90;0.90;;;;;;;3.31;100.00;98513.38;6182213;23;20201;-91
2024/03/05 21:13:07;;;;;;;;;;;;;;;3.42;100.00;98519.22;6202458;23;20012;-92
2024/03/05 21:15:34;;;;;;;1.00;1.00;;;;;;;3.53;100.00;98518.06;6175513;23;19904;-92
2024/03/05 21:18:01;;;;;;;0.98;0.98;;;;;;;3.36;99.63;98518.91;6176235;23;20000;-91
2024/03/05 21:20:28;;;;;;;1.00;1.00;;;;;;;3.23;100.00;98514.69;6202773;23;20023;-91
2024/03/05 21:22:53;;;;;;;1.00;1.00;;;;;;;3.24;100.00;98522.69;6199397;23;20012;-92
2024/03/05 21:25:21;;;;;;;0.93;0.93;;;;;;;3.21;100.00;98517.25;6200648;23;20008;-92
2024/03/05 21:27:49;;;;;;;1.00;1.00;;;;;;;3.27;100.00;98522.84;6173842;23;20028;-92
2024/03/05 21:30:14;;;;;;;1.00;1.00;;;;;;;3.39;100.00;98519.06;6197841;23;20009;-92
2024/03/05 21:32:42;;;;;;;0.90;0.90;;;;;;;3.10;100.00;98521.03;6198578;23;20040;-92
2024/03/05 21:35:09;;;;;;;0.90;0.90;;;;;;;3.17;100.00;98523.19;6226318;23;20008;-92
2024/03/05 21:37:35;;;;;;;0.90;0.90;;;;;;;3.13;100.00;98517.66;6201277;23;20016;-92
2024/03/05 21:40:04;;;;;;;0.90;0.90;;;;;;;3.17;100.00;98523.19;6201489;23;20035;-91
2024/03/05 21:42:36;;;;;;;0.93;0.93;;;;;;;3.21;100.00;98517.25;6227918;23;20004;-91
2024/03/05 21:45:06;;;;;;;1.00;1.00;;;;;;;3.37;100.00;98515.44;6178938;23;20016;-91
2024/03/05 21:47:31;;;;;;;1.00;1.00;;;;;;;3.32;100.00;98510.81;6202382;23;20004;-90
2024/03/05 21:49:59;;;;;;;0.90;0.90;;;;;;;3.32;100.00;98509.91;6180535;23;20015;-92
2024/03/05 21:52:26;;;;;;;0.80;0.80;;;;;;;3.33;99.96;98511.72;6231615;23;20000;-92
2024/03/05 21:54:55;;;;;;;0.98;0.98;;;;;;;3.25;99.91;98513.94;6184418;23;20032;-92
2024/03/05 21:57:21;;;;;;;0.90;0.90;;;;;;;3.17;99.96;98511.75;6208761;23;20023;-89
2024/03/05 21:59:47;;;;;;;0.90;0.90;;;;;;;3.16;100.00;98513.44;6236239;23;20017;-90
2024/03/05 22:02:14;;;;;;;1.00;1.00;;;;;;;3.22;100.00;98500.63;6205660;23;20035;-89
2024/03/05 22:04:44;;;;;;;0.98;0.98;;;;;;;3.33;99.92;98510.00;6214922;23;20040;-91
2024/03/05 22:07:15;;;;;;;1.00;1.00;;;;;;;3.28;100.00;98508.84;6213304;23;20017;-89
2024/03/05 22:09:55;;;;;;;0.90;0.90;;;;;;;3.13;100.00;98505.38;6186783;23;20009;-92
2024/03/05 22:12:25;;;;;;;0.90;0.90;;;;;;;3.14;100.00;98514.19;6206253;23;20015;-91
2024/03/05 22:14:50;;;;;;;1.00;1.00;;;;;;;3.18;100.00;98518.81;6205998;23;20012;-93
2024/03/05 22:17:16;;;;;;;0.90;0.90;;;;;;;3.23;100.00;98514.69;6179695;23;20068;-93
2024/03/05 22:19:45;;;;;;;1.00;1.00;;;;;;;3.16;100.00;98513.44;6204308;23;20017;-95
2024/03/05 22:22:16;;;;;;;0.90;0.90;;;;;;;3.15;100.00;98514.25;6203600;23;20016;-95
2024/03/05 22:24:44;;;;;;;0.80;0.80;;;;;;;3.05;100.00;98511.97;6205107;23;20079;-91
2024/03/05 22:27:10;;;;;;;0.90;0.90;;;;;;;3.03;100.00;98519.78;6228195;23;20020;-94
2024/03/05 22:29:42;;;;;;;0.90;0.90;;;;;;;2.98;100.00;98518.63;6202400;23;20071;-92
2024/03/05 22:32:08;;;;;;;1.10;1.10;;;;;;;2.95;100.00;98514.91;6201789;23;20016;-94
2024/03/05 22:34:36;;;;;;;0.95;0.95;;;;;;;2.97;100.00;98529.06;6228425;23;20021;-94
2024/03/05 22:37:04;;;;;;;0.90;0.90;;;;;;;3.01;100.00;98528.41;6203474;23;20013;-91
2024/03/05 22:47:41;;;;;;;0.90;0.90;;;;;;;3.13;100.00;98539.66;6197336;23;20056;-89
2024/03/05 22:50:14;;;;;;;0.90;0.90;;;;;;;3.05;100.00;98539.22;6206354;23;20073;-91
2024/03/05 22:52:47;;;;;;;0.90;0.90;;;;;;;3.09;100.00;98542.94;6197934;23;20031;-89
2024/03/05 22:55:15;;;;;;;0.90;0.90;;;;;;;3.12;100.00;98543.13;6149545;23;20033;-91